Time;durP1;ratioP1;P1;durP2;ratioP2;P2;SDS_P1;SDS_P2;PMS_P1;PMS_P2;Temp;Humidity;BMP_temperature;BMP_pressure;BME280_temperature;BME280_humidity;BME280_pressure;Samples;Min_cycle;Max_cycle;Signal;HPM_P1;HPM_P2
2021/05/13 00:01:22;;;;;;;13.07;8.95;;;8.30;99.90;;;;;;4686116;30;20057;-81
2021/05/13 00:03:53;;;;;;;15.00;8.38;;;8.30;99.90;;;;;;4699799;30;20061;-81
2021/05/13 00:06:21;;;;;;;12.23;9.07;;;8.30;99.90;;;;;;4699541;30;20057;-80
2021/05/13 00:08:55;;;;;;;12.80;8.93;;;8.30;99.90;;;;;;4699945;30;20041;-81
2021/05/13 00:11:33;;;;;;;15.90;9.30;;;8.30;99.90;;;;;;4700896;30;20104;-80
2021/05/13 00:14:05;;;;;;;12.85;10.65;;;8.30;99.90;;;;;;4700902;30;20811;-80
2021/05/13 00:16:35;;;;;;;13.57;9.25;;;8.30;99.90;;;;;;4685551;30;20062;-81
2021/05/13 00:19:12;;;;;;;12.45;8.63;;;8.30;99.90;;;;;;4685507;30;20072;-80
2021/05/13 00:21:44;;;;;;;14.93;10.57;;;8.30;99.90;;;;;;4685179;30;20064;-81
2021/05/13 00:24:14;;;;;;;10.85;8.88;;;8.30;99.90;;;;;;4700647;30;20054;-80
2021/05/13 00:26:47;;;;;;;17.30;11.45;;;8.30;99.90;;;;;;4685348;30;20061;-80
2021/05/13 00:29:25;;;;;;;12.95;9.75;;;8.30;99.90;;;;;;4699263;30;20053;-80
2021/05/13 00:31:57;;;;;;;18.42;9.90;;;8.30;99.90;;;;;;4685599;30;20068;-84
2021/05/13 00:34:26;;;;;;;15.02;11.48;;;8.30;99.90;;;;;;4701163;30;20061;-84
2021/05/13 00:36:54;;;;;;;15.98;9.93;;;8.30;99.90;;;;;;4710979;30;20053;-85
2021/05/13 00:39:23;;;;;;;18.00;11.20;;;8.30;99.90;;;;;;4685645;30;20061;-83
2021/05/13 00:41:51;;;;;;;14.13;9.05;;;8.30;99.90;;;;;;4684279;30;20053;-85
2021/05/13 00:44:19;;;;;;;12.73;9.95;;;8.30;99.90;;;;;;4687921;30;20404;-86
2021/05/13 00:46:48;;;;;;;12.45;10.23;;;8.30;99.90;;;;;;4716797;30;20499;-84
2021/05/13 00:49:18;;;;;;;15.15;10.18;;;8.30;99.90;;;;;;4716983;30;20495;-85
2021/05/13 00:51:46;;;;;;;34.80;10.23;;;8.30;99.90;;;;;;4716755;30;20065;-85
2021/05/13 00:54:18;;;;;;;11.68;9.57;;;8.30;99.90;;;;;;4702112;30;20072;-85
2021/05/13 00:56:46;;;;;;;16.17;9.68;;;8.30;99.90;;;;;;4716495;30;20095;-85
2021/05/13 00:59:14;;;;;;;14.32;10.23;;;8.30;99.90;;;;;;4699786;30;20424;-85
2021/05/13 01:04:14;;;;;;;14.07;9.97;;;8.30;99.90;;;;;;4700175;30;20050;-85
2021/05/13 01:06:47;;;;;;;10.73;9.05;;;8.30;99.90;;;;;;4700736;30;20304;-85
2021/05/13 01:09:23;;;;;;;14.38;9.45;;;8.30;99.90;;;;;;4700217;30;20057;-86
2021/05/13 01:11:53;;;;;;;17.52;10.57;;;8.30;99.90;;;;;;4698965;30;20757;-85
2021/05/13 01:14:29;;;;;;;11.50;10.18;;;8.40;99.90;;;;;;4700355;30;20061;-85
2021/05/13 01:19:46;;;;;;;14.45;11.23;;;8.30;99.90;;;;;;4702169;30;20053;-84
2021/05/13 01:22:16;;;;;;;19.15;10.25;;;8.30;99.90;;;;;;4716480;30;20053;-83
2021/05/13 01:24:44;;;;;;;11.20;8.27;;;8.30;99.90;;;;;;4716027;30;20056;-84
2021/05/13 01:27:12;;;;;;;14.38;11.10;;;8.30;99.90;;;;;;4717521;30;20057;-85
2021/05/13 01:29:45;;;;;;;11.57;7.55;;;8.30;99.90;;;;;;4715585;30;20053;-86
2021/05/13 01:32:15;;;;;;;13.70;10.77;;;8.30;99.90;;;;;;4713031;30;20045;-84
2021/05/13 01:34:43;;;;;;;18.10;13.65;;;8.30;99.90;;;;;;4684802;30;20079;-86
2021/05/13 01:37:11;;;;;;;16.13;11.90;;;8.30;99.90;;;;;;4712785;30;20049;-84
2021/05/13 01:39:39;;;;;;;18.05;10.38;;;8.20;99.90;;;;;;4684749;30;20085;-84
2021/05/13 01:42:07;;;;;;;13.43;11.15;;;8.20;99.90;;;;;;4712975;30;20053;-85
2021/05/13 01:44:35;;;;;;;12.18;9.65;;;8.20;99.90;;;;;;4702914;30;20056;-85
2021/05/13 01:47:03;;;;;;;20.75;11.75;;;8.20;99.90;;;;;;4701584;30;20057;-85
2021/05/13 01:49:33;;;;;;;14.73;10.57;;;8.20;99.90;;;;;;4672679;30;20056;-85
2021/05/13 01:52:01;;;;;;;16.15;10.60;;;8.20;99.90;;;;;;4686558;30;20057;-86
2021/05/13 01:54:29;;;;;;;15.60;9.60;;;8.20;99.90;;;;;;4701399;30;20065;-86
2021/05/13 01:57:05;;;;;;;14.35;10.10;;;8.20;99.90;;;;;;4700789;30;20041;-85
2021/05/13 01:59:33;;;;;;;23.13;10.25;;;8.20;99.90;;;;;;4701227;30;20060;-84
2021/05/13 02:02:02;;;;;;;12.68;10.50;;;8.20;99.90;;;;;;4702526;30;20045;-85
2021/05/13 02:04:34;;;;;;;19.38;9.30;;;8.20;99.90;;;;;;4687071;30;20518;-85
2021/05/13 02:07:05;;;;;;;11.02;7.70;;;8.20;99.90;;;;;;4673259;30;20407;-85
2021/05/13 02:09:33;;;;;;;12.65;9.98;;;8.20;99.90;;;;;;4714410;30;20053;-85
2021/05/13 02:12:03;;;;;;;12.77;9.30;;;8.20;99.90;;;;;;4716239;30;20060;-84
2021/05/13 02:14:34;;;;;;;13.88;9.68;;;8.20;99.90;;;;;;4716137;30;20516;-85
2021/05/13 02:17:02;;;;;;;15.88;9.90;;;8.20;99.90;;;;;;4686475;30;20057;-85
2021/05/13 02:19:30;;;;;;;12.95;9.70;;;8.20;99.90;;;;;;4684188;30;20068;-84
2021/05/13 02:21:58;;;;;;;14.20;9.40;;;8.20;99.90;;;;;;4689061;30;20056;-85
2021/05/13 02:24:26;;;;;;;16.63;10.65;;;8.20;99.90;;;;;;4683018;30;20594;-85
2021/05/13 02:26:54;;;;;;;16.77;9.65;;;8.10;99.90;;;;;;4698012;30;20515;-85
2021/05/13 02:29:23;;;;;;;9.32;7.18;;;8.10;99.90;;;;;;4697303;30;20054;-82
2021/05/13 02:31:54;;;;;;;11.45;9.60;;;8.10;99.90;;;;;;4668130;30;20057;-84
2021/05/13 02:34:47;;;;;;;10.13;8.07;;;8.10;99.90;;;;;;4670542;30;20073;-85
2021/05/13 02:37:15;;;;;;;11.88;9.82;;;8.10;99.90;;;;;;4668671;30;20057;-85
2021/05/13 02:39:43;;;;;;;9.80;7.95;;;8.20;99.90;;;;;;4683382;30;20049;-85
2021/05/13 02:42:11;;;;;;;11.32;10.13;;;8.10;99.90;;;;;;4682817;30;20066;-85
2021/05/13 02:44:39;;;;;;;16.35;9.63;;;8.10;99.90;;;;;;4680757;30;20064;-86
2021/05/13 02:47:07;;;;;;;14.30;9.88;;;8.10;99.90;;;;;;4698888;30;20069;-86
2021/05/13 02:49:35;;;;;;;16.33;10.48;;;8.10;99.90;;;;;;4684582;30;20064;-85
2021/05/13 02:52:05;;;;;;;16.67;8.18;;;8.10;99.90;;;;;;4683598;30;20064;-85
2021/05/13 02:54:38;;;;;;;10.90;7.65;;;8.10;99.90;;;;;;4685026;30;20077;-86
2021/05/13 02:57:17;;;;;;;8.48;7.68;;;8.10;99.90;;;;;;4677771;30;20045;-87
2021/05/13 02:59:49;;;;;;;11.40;9.32;;;8.10;99.90;;;;;;4684429;30;20065;-86
2021/05/13 03:02:23;;;;;;;13.43;8.07;;;8.10;99.90;;;;;;4684161;30;20061;-86
2021/05/13 03:04:54;;;;;;;11.63;8.43;;;8.10;99.90;;;;;;4684415;30;20415;-84
2021/05/13 03:07:22;;;;;;;12.27;8.80;;;8.10;99.90;;;;;;4684382;30;20053;-85
2021/05/13 03:09:57;;;;;;;7.97;6.65;;;8.10;99.90;;;;;;4669681;30;20092;-85
2021/05/13 03:12:25;;;;;;;12.52;8.70;;;8.10;99.90;;;;;;4684011;30;20044;-86
2021/05/13 03:14:54;;;;;;;12.63;6.70;;;8.10;99.90;;;;;;4683601;30;20427;-86
2021/05/13 03:17:22;;;;;;;13.05;10.00;;;8.10;99.90;;;;;;4667147;30;20053;-85
2021/05/13 03:19:59;;;;;;;13.75;9.32;;;8.20;99.90;;;;;;4710865;30;20076;-86
2021/05/13 03:22:37;;;;;;;8.90;7.95;;;8.10;99.90;;;;;;4666981;30;20058;-86
2021/05/13 03:25:07;;;;;;;9.52;8.48;;;8.20;99.90;;;;;;4682249;30;20500;-85
2021/05/13 03:27:45;;;;;;;12.38;8.25;;;8.20;99.90;;;;;;4682792;30;20061;-85
2021/05/13 03:30:19;;;;;;;13.38;8.60;;;8.20;99.90;;;;;;4681510;30;20058;-86
2021/05/13 03:33:01;;;;;;;12.85;8.40;;;8.20;99.90;;;;;;4679405;30;20054;-85
2021/05/13 03:35:31;;;;;;;11.20;8.65;;;8.20;99.90;;;;;;4710507;30;20520;-85
2021/05/13 03:37:59;;;;;;;9.80;8.52;;;8.20;99.90;;;;;;4696150;30;20076;-86
2021/05/13 03:40:30;;;;;;;14.77;8.85;;;8.20;99.90;;;;;;4697533;30;20427;-85
2021/05/13 03:43:03;;;;;;;14.63;8.27;;;8.20;99.90;;;;;;4682932;30;20089;-84
2021/05/13 03:45:32;;;;;;;9.68;7.22;;;8.20;99.90;;;;;;4706821;30;20068;-85
2021/05/13 03:48:02;;;;;;;12.18;8.48;;;8.20;99.90;;;;;;4727379;30;20057;-85
2021/05/13 03:50:32;;;;;;;12.20;8.17;;;8.20;99.90;;;;;;4728713;30;20068;-86
2021/05/13 03:53:02;;;;;;;15.02;9.02;;;8.20;99.90;;;;;;4727467;30;20045;-85
2021/05/13 03:55:30;;;;;;;13.25;9.25;;;8.20;99.90;;;;;;4728339;30;20499;-86
2021/05/13 03:57:59;;;;;;;11.27;8.70;;;8.20;99.90;;;;;;4714213;30;20065;-86
2021/05/13 04:03:14;;;;;;;10.57;8.25;;;8.20;99.90;;;;;;4713910;30;20408;-85
2021/05/13 04:05:42;;;;;;;10.27;7.82;;;8.20;99.90;;;;;;4713433;30;20045;-86
2021/05/13 04:08:14;;;;;;;10.48;8.52;;;8.20;99.90;;;;;;4699268;30;20050;-86
2021/05/13 04:10:42;;;;;;;11.18;8.02;;;8.20;99.90;;;;;;4713469;30;20057;-86
2021/05/13 04:13:13;;;;;;;13.27;8.65;;;8.20;99.90;;;;;;4699000;30;20045;-80
2021/05/13 04:15:57;;;;;;;9.82;8.82;;;8.20;99.90;;;;;;4712785;30;20057;-82
2021/05/13 04:18:26;;;;;;;8.90;8.05;;;8.20;99.90;;;;;;4713453;30;20060;-82
2021/05/13 04:20:54;;;;;;;14.25;9.40;;;8.20;99.90;;;;;;4709405;30;20508;-86
2021/05/13 04:23:22;;;;;;;9.25;6.50;;;8.20;99.90;;;;;;4698330;30;20069;-82
2021/05/13 04:25:50;;;;;;;7.70;5.60;;;8.20;99.90;;;;;;4682850;30;20068;-80
2021/05/13 04:28:18;;;;;;;9.45;7.78;;;8.20;99.90;;;;;;4700506;30;20053;-80
2021/05/13 04:30:46;;;;;;;9.57;6.78;;;8.20;99.90;;;;;;4700356;30;20069;-81
2021/05/13 04:33:14;;;;;;;8.32;6.60;;;8.20;99.90;;;;;;4700066;30;20054;-81
2021/05/13 04:35:42;;;;;;;9.85;8.55;;;8.20;99.90;;;;;;4702233;30;20703;-80
2021/05/13 04:38:15;;;;;;;8.63;7.65;;;8.20;99.90;;;;;;4700615;30;20504;-81
2021/05/13 04:40:43;;;;;;;15.75;9.38;;;8.20;99.90;;;;;;4684146;30;20084;-80
2021/05/13 04:43:11;;;;;;;9.13;8.07;;;8.30;99.90;;;;;;4700355;30;20065;-81
2021/05/13 04:45:39;;;;;;;8.27;7.53;;;8.30;99.90;;;;;;4711487;30;20064;-85
2021/05/13 04:48:12;;;;;;;10.40;8.63;;;8.20;99.90;;;;;;4717685;30;20072;-85
2021/05/13 04:50:40;;;;;;;10.48;6.72;;;8.30;99.90;;;;;;4717792;30;20445;-84
2021/05/13 04:53:10;;;;;;;9.60;6.57;;;8.30;99.90;;;;;;4701747;30;20488;-86
2021/05/13 04:55:52;;;;;;;9.85;6.70;;;8.30;99.90;;;;;;4689588;30;20064;-85
2021/05/13 04:58:23;;;;;;;11.68;7.53;;;8.30;99.90;;;;;;4671302;30;20528;-86
2021/05/13 05:00:51;;;;;;;12.57;8.13;;;8.30;99.90;;;;;;4684712;30;20046;-85
2021/05/13 05:03:19;;;;;;;15.15;7.38;;;8.40;99.90;;;;;;4684667;30;20068;-85
2021/05/13 05:05:47;;;;;;;8.90;6.43;;;8.40;99.90;;;;;;4684351;30;20061;-86
2021/05/13 05:08:15;;;;;;;5.93;5.28;;;8.40;99.90;;;;;;4684669;30;20538;-86
2021/05/13 05:10:49;;;;;;;7.57;6.80;;;8.40;99.90;;;;;;4661163;30;20075;-83
2021/05/13 05:13:17;;;;;;;9.38;7.13;;;8.40;99.90;;;;;;4717195;30;20235;-80
2021/05/13 05:15:45;;;;;;;9.68;6.70;;;8.40;99.90;;;;;;4701848;30;20053;-80
2021/05/13 05:18:21;;;;;;;11.95;7.63;;;8.50;99.90;;;;;;4686757;30;20060;-80
2021/05/13 05:20:50;;;;;;;15.00;7.55;;;8.50;99.90;;;;;;4716057;30;20072;-80
2021/05/13 05:23:18;;;;;;;9.25;7.75;;;8.50;99.90;;;;;;4687125;30;20497;-81
2021/05/13 05:25:48;;;;;;;11.50;7.30;;;8.50;99.90;;;;;;4701193;30;20063;-81
2021/05/13 05:28:18;;;;;;;9.23;7.90;;;8.50;99.90;;;;;;4700827;30;20072;-80
2021/05/13 05:30:52;;;;;;;7.82;6.82;;;8.50;99.90;;;;;;4702121;30;20061;-82
2021/05/13 05:33:22;;;;;;;7.95;6.82;;;8.50;99.90;;;;;;4706073;30;20062;-85
2021/05/13 05:35:50;;;;;;;10.13;6.50;;;8.60;99.90;;;;;;4706574;30;20869;-85
2021/05/13 05:38:26;;;;;;;14.35;8.10;;;8.60;99.90;;;;;;4672287;30;20399;-81
2021/05/13 05:41:01;;;;;;;9.35;6.97;;;8.60;99.90;;;;;;4670359;30;20057;-85
2021/05/13 05:43:33;;;;;;;10.40;7.38;;;8.60;99.90;;;;;;4698275;30;20795;-82
2021/05/13 05:46:00;;;;;;;7.00;6.13;;;8.60;99.90;;;;;;4683272;30;20500;-80
2021/05/13 05:48:29;;;;;;;15.88;10.25;;;8.60;99.90;;;;;;4682866;30;20073;-81
2021/05/13 05:50:57;;;;;;;15.07;9.27;;;8.70;99.90;;;;;;4699160;30;20069;-80
2021/05/13 05:53:25;;;;;;;9.32;7.72;;;8.70;99.90;;;;;;4683449;30;20053;-80
2021/05/13 05:55:53;;;;;;;12.05;6.90;;;8.70;99.90;;;;;;4697812;30;20060;-81
2021/05/13 05:58:20;;;;;;;8.90;6.60;;;8.70;99.90;;;;;;4669686;30;20061;-80
2021/05/13 06:00:48;;;;;;;10.05;7.05;;;8.70;99.90;;;;;;4668636;30;20088;-80
2021/05/13 06:03:17;;;;;;;10.57;7.82;;;8.70;99.90;;;;;;4698792;30;20054;-80
2021/05/13 06:05:45;;;;;;;7.40;6.68;;;8.70;99.90;;;;;;4684239;30;20497;-80
2021/05/13 06:08:13;;;;;;;10.60;8.20;;;8.70;99.90;;;;;;4699532;30;20053;-80
2021/05/13 06:10:41;;;;;;;8.98;7.47;;;8.80;99.90;;;;;;4684586;30;20075;-80
2021/05/13 06:13:09;;;;;;;9.00;6.72;;;8.80;99.90;;;;;;4714144;30;20065;-80
2021/05/13 06:15:41;;;;;;;10.05;8.63;;;8.80;99.90;;;;;;4700284;30;20084;-81
2021/05/13 06:18:09;;;;;;;;;;;8.90;99.90;;;;;;4700136;30;20049;-80
2021/05/13 06:20:37;;;;;;;9.18;7.95;;;8.90;99.90;;;;;;4685408;30;19934;-81
2021/05/13 06:23:08;;;;;;;13.95;9.25;;;9.00;99.90;;;;;;4700723;30;20420;-81
2021/05/13 06:25:37;;;;;;;20.55;10.00;;;8.90;99.90;;;;;;4685709;30;20068;-80
2021/05/13 06:28:05;;;;;;;14.82;10.35;;;9.00;99.90;;;;;;4699703;30;20057;-80
2021/05/13 06:30:33;;;;;;;11.65;8.52;;;9.00;99.90;;;;;;4699787;30;20061;-80
2021/05/13 06:33:03;;;;;;;8.65;7.55;;;9.00;99.90;;;;;;4715269;30;20500;-80
2021/05/13 06:35:34;;;;;;;12.10;9.32;;;9.10;99.90;;;;;;4715636;30;20068;-80
2021/05/13 06:38:02;;;;;;;10.93;8.52;;;9.10;99.90;;;;;;4715169;30;20084;-80
2021/05/13 06:40:30;;;;;;;12.93;8.68;;;9.10;99.90;;;;;;4700875;30;20504;-81
2021/05/13 06:43:00;;;;;;;9.50;7.60;;;9.20;99.90;;;;;;4698733;30;20066;-79
2021/05/13 06:45:31;;;;;;;10.45;8.07;;;9.30;99.90;;;;;;4696868;30;20423;-82
2021/05/13 06:48:03;;;;;;;8.38;7.55;;;9.50;99.90;;;;;;4668760;30;20061;-80
2021/05/13 06:50:31;;;;;;;14.52;10.90;;;9.60;99.90;;;;;;4696199;30;20064;-81
2021/05/13 06:52:59;;;;;;;8.80;6.50;;;9.50;99.90;;;;;;4696877;30;20061;-80
2021/05/13 06:55:27;;;;;;;9.90;7.53;;;9.40;99.90;;;;;;4698561;30;20068;-82
2021/05/13 06:57:55;;;;;;;9.85;8.32;;;9.40;99.90;;;;;;4671467;30;20057;-80
2021/05/13 07:00:24;;;;;;;11.75;9.07;;;9.40;99.90;;;;;;4715042;30;20100;-80
2021/05/13 07:03:14;;;;;;;9.30;8.20;;;9.40;99.90;;;;;;4686662;30;20049;-80
2021/05/13 07:05:42;;;;;;;8.48;6.78;;;9.40;99.90;;;;;;4685053;30;20073;-81
2021/05/13 07:08:10;;;;;;;8.93;7.78;;;9.40;99.90;;;;;;4684866;30;20061;-80
2021/05/13 07:10:39;;;;;;;8.23;6.90;;;9.40;99.90;;;;;;4668088;30;20062;-81
2021/05/13 07:13:07;;;;;;;7.72;6.70;;;9.40;99.90;;;;;;4682608;30;20061;-80
2021/05/13 07:15:38;;;;;;;11.70;7.63;;;9.40;99.90;;;;;;4697995;30;20058;-83
2021/05/13 07:18:12;;;;;;;10.70;9.60;;;9.30;99.90;;;;;;4681979;30;20050;-82
2021/05/13 07:20:41;;;;;;;8.20;7.05;;;9.40;99.90;;;;;;4681589;30;20421;-80
2021/05/13 07:23:09;;;;;;;16.45;10.00;;;9.50;99.90;;;;;;4682619;30;20447;-80
2021/05/13 07:25:38;;;;;;;11.25;7.13;;;9.60;99.90;;;;;;4682285;30;20057;-80
2021/05/13 07:28:06;;;;;;;28.98;8.95;;;9.50;99.90;;;;;;4681537;30;20069;-82
2021/05/13 07:30:34;;;;;;;9.80;7.75;;;9.60;99.90;;;;;;4686496;30;20072;-79
2021/05/13 07:33:02;;;;;;;11.00;7.82;;;9.50;99.90;;;;;;4696125;30;20061;-80
2021/05/13 07:35:31;;;;;;;10.98;7.50;;;9.60;99.90;;;;;;4680181;30;20489;-80
2021/05/13 07:38:07;;;;;;;10.27;8.23;;;9.60;99.90;;;;;;4670139;30;20045;-83
2021/05/13 07:40:42;;;;;;;6.97;6.28;;;9.60;99.90;;;;;;4684602;30;20052;-81
2021/05/13 07:43:11;;;;;;;9.05;8.15;;;9.50;99.90;;;;;;4691074;30;20061;-78
2021/05/13 07:45:45;;;;;;;16.42;7.82;;;9.50;99.90;;;;;;4701456;30;20058;-79
2021/05/13 07:48:13;;;;;;;12.77;9.20;;;9.60;99.90;;;;;;4697028;30;20515;-79
2021/05/13 07:50:41;;;;;;;8.52;7.72;;;9.70;99.90;;;;;;4706258;30;20535;-82
2021/05/13 07:53:09;;;;;;;14.15;9.30;;;9.70;99.90;;;;;;4705857;30;20068;-81
2021/05/13 07:55:38;;;;;;;8.98;6.28;;;9.70;99.90;;;;;;4713953;30;20069;-82
2021/05/13 07:58:06;;;;;;;13.70;8.18;;;9.80;99.90;;;;;;4714341;30;20049;-83
2021/05/13 08:00:34;;;;;;;8.43;7.57;;;9.70;99.90;;;;;;4714939;30;20057;-81
2021/05/13 08:03:03;;;;;;;7.20;6.50;;;9.80;99.90;;;;;;4717026;30;20076;-82
2021/05/13 08:05:31;;;;;;;13.15;8.18;;;9.80;99.90;;;;;;4688321;30;20052;-82
2021/05/13 08:07:59;;;;;;;7.68;6.90;;;9.80;99.90;;;;;;4717527;30;20515;-83
2021/05/13 08:10:28;;;;;;;9.18;7.72;;;9.80;99.90;;;;;;4705822;30;20057;-83
2021/05/13 08:12:57;;;;;;;9.35;7.05;;;9.80;99.90;;;;;;4699882;30;20413;-88
2021/05/13 08:15:25;;;;;;;14.45;8.68;;;9.80;99.90;;;;;;4714586;30;20409;-89
2021/05/13 08:17:53;;;;;;;9.90;7.85;;;9.80;99.90;;;;;;4699180;30;20049;-88
2021/05/13 08:20:21;;;;;;;11.82;9.82;;;9.90;99.90;;;;;;4704728;30;20046;-88
2021/05/13 08:22:49;;;;;;;9.43;8.05;;;9.90;99.90;;;;;;4713822;30;20064;-86
2021/05/13 08:25:20;;;;;;;9.98;9.00;;;9.90;99.90;;;;;;4713652;30;20056;-87
2021/05/13 08:27:49;;;;;;;9.13;7.60;;;10.00;99.90;;;;;;4700725;30;20053;-86
2021/05/13 08:30:18;;;;;;;13.35;9.60;;;10.10;99.90;;;;;;4704095;30;20052;-87
2021/05/13 08:32:46;;;;;;;9.30;8.43;;;10.20;99.90;;;;;;4709544;30;20065;-89
2021/05/13 08:35:14;;;;;;;16.13;9.90;;;10.10;99.90;;;;;;4691051;30;20061;-85
2021/05/13 08:37:45;;;;;;;8.10;7.15;;;10.20;99.90;;;;;;4700091;30;20050;-86
2021/05/13 08:40:14;;;;;;;12.17;8.20;;;10.10;99.90;;;;;;4707902;30;20052;-78
2021/05/13 08:42:42;;;;;;;10.30;8.10;;;10.10;99.90;;;;;;4703050;30;20313;-77
2021/05/13 08:45:10;;;;;;;9.88;6.90;;;10.00;99.90;;;;;;4699408;30;20516;-77
2021/05/13 08:47:45;;;;;;;11.70;8.10;;;10.00;99.90;;;;;;4699974;30;20064;-76
2021/05/13 08:50:18;;;;;;;7.63;6.82;;;9.90;99.90;;;;;;4706054;30;20401;-77
2021/05/13 08:52:46;;;;;;;13.45;8.77;;;9.90;99.90;;;;;;4708692;30;20057;-78
2021/05/13 08:55:16;;;;;;;14.32;8.45;;;9.90;99.90;;;;;;4717758;30;20078;-77
2021/05/13 08:57:44;;;;;;;9.32;6.80;;;9.90;99.90;;;;;;4698316;30;20421;-78
2021/05/13 09:00:13;;;;;;;8.88;8.02;;;9.80;99.90;;;;;;4717130;30;20056;-78
2021/05/13 09:02:51;;;;;;;9.30;7.43;;;9.80;99.90;;;;;;4717581;30;20061;-78
2021/05/13 09:05:19;;;;;;;11.32;8.20;;;9.90;99.90;;;;;;4717170;30;20053;-78
2021/05/13 09:07:47;;;;;;;10.18;7.72;;;9.90;99.90;;;;;;4717218;30;20068;-78
2021/05/13 09:10:19;;;;;;;10.63;8.45;;;9.90;99.90;;;;;;4717031;30;20053;-78
2021/05/13 09:12:49;;;;;;;8.52;6.57;;;10.00;99.90;;;;;;4716160;30;20053;-78
2021/05/13 09:15:27;;;;;;;10.43;7.80;;;9.80;99.90;;;;;;4717469;30;20056;-78
2021/05/13 09:17:58;;;;;;;10.02;6.78;;;9.80;99.90;;;;;;4712847;30;20061;-77
2021/05/13 09:20:31;;;;;;;10.80;9.02;;;9.90;99.90;;;;;;4699409;30;20038;-78
2021/05/13 09:23:28;;;;;;;17.52;10.32;;;9.90;99.90;;;;;;4702248;30;20068;-78
2021/05/13 09:26:08;;;;;;;19.48;9.70;;;10.10;99.90;;;;;;4716701;30;20492;-79
2021/05/13 09:28:42;;;;;;;12.40;8.32;;;10.30;99.90;;;;;;4709130;30;20060;-85
2021/05/13 09:31:33;;;;;;;9.50;7.70;;;10.40;99.90;;;;;;4672416;30;20065;-85
2021/05/13 09:34:12;;;;;;;12.23;8.40;;;10.50;99.90;;;;;;4686060;30;20538;-83
2021/05/13 09:36:40;;;;;;;13.52;8.13;;;10.60;99.90;;;;;;4692377;30;20056;-84
2021/05/13 09:43:43;;;;;;;6.50;5.85;;;10.70;99.90;;;;;;4634627;30;20142;-85
2021/05/13 09:46:12;;;;;;;6.50;5.55;;;10.40;99.90;;;;;;4645866;30;20055;-86
2021/05/13 09:48:46;;;;;;;6.85;5.40;;;10.20;99.90;;;;;;4657395;30;20053;-78
2021/05/13 09:51:28;;;;;;;10.38;4.75;;;10.00;99.90;;;;;;4698439;30;20393;-78
2021/05/13 09:54:07;;;;;;;7.63;6.65;;;9.90;99.90;;;;;;4699200;30;20057;-78
2021/05/13 09:56:40;;;;;;;7.72;5.18;;;9.80;99.90;;;;;;4713169;30;20427;-78
2021/05/13 09:59:36;;;;;;;8.10;5.35;;;9.80;99.90;;;;;;4713952;30;20076;-78
2021/05/13 10:02:08;;;;;;;8.43;7.03;;;9.90;99.90;;;;;;4711613;30;20049;-79
2021/05/13 10:04:36;;;;;;;6.70;6.00;;;10.00;99.90;;;;;;4698767;30;20587;-79
2021/05/13 10:07:04;;;;;;;11.65;8.07;;;10.10;99.90;;;;;;4713467;30;20057;-79
2021/05/13 10:09:32;;;;;;;8.68;6.43;;;10.10;99.90;;;;;;4713570;30;20075;-79
2021/05/13 10:12:14;;;;;;;7.93;6.37;;;10.20;99.90;;;;;;4712855;30;20056;-79
2021/05/13 10:14:43;;;;;;;10.02;7.40;;;10.30;99.90;;;;;;4712039;30;20323;-79
2021/05/13 10:17:13;;;;;;;10.50;6.70;;;10.30;99.90;;;;;;4711691;30;20065;-81
2021/05/13 10:19:46;;;;;;;8.38;6.97;;;10.40;99.90;;;;;;4710921;30;20062;-82
2021/05/13 10:22:17;;;;;;;11.43;7.72;;;10.50;99.90;;;;;;4694828;30;20880;-82
2021/05/13 10:24:46;;;;;;;7.40;6.70;;;10.50;99.90;;;;;;4712133;30;20057;-84
2021/05/13 10:27:21;;;;;;;8.23;7.32;;;10.60;99.90;;;;;;4685624;30;20057;-84
2021/05/13 10:30:00;;;;;;;11.35;8.45;;;10.70;99.90;;;;;;4713870;30;20516;-83
2021/05/13 10:32:33;;;;;;;6.55;5.75;;;10.70;99.90;;;;;;4711885;30;20057;-86
2021/05/13 10:35:08;;;;;;;8.90;5.72;;;10.80;99.90;;;;;;4697466;30;20057;-82
2021/05/13 10:37:40;;;;;;;8.63;7.32;;;10.70;99.90;;;;;;4689545;30;20531;-81
2021/05/13 10:40:22;;;;;;;9.88;6.53;;;10.80;99.90;;;;;;4698675;30;20068;-82
2021/05/13 10:43:03;;;;;;;6.07;5.07;;;10.90;99.90;;;;;;4682977;30;20072;-83
2021/05/13 10:45:37;;;;;;;6.60;5.40;;;10.90;99.90;;;;;;4695395;30;20053;-85
2021/05/13 10:48:22;;;;;;;6.25;5.35;;;11.10;99.90;;;;;;4707622;30;20061;-87
2021/05/13 10:50:56;;;;;;;8.23;7.10;;;11.30;99.90;;;;;;4692380;30;20064;-86
2021/05/13 10:56:25;;;;;;;16.58;7.07;;;11.40;99.90;;;;;;4716185;30;20689;-84
2021/05/13 10:58:59;;;;;;;9.43;6.93;;;11.40;99.90;;;;;;4699665;30;20064;-82
2021/05/13 11:01:50;;;;;;;6.45;5.85;;;11.30;99.90;;;;;;4714862;30;20045;-84
2021/05/13 11:04:25;;;;;;;7.25;6.57;;;11.20;99.90;;;;;;4708307;30;20067;-89
2021/05/13 11:07:04;;;;;;;6.25;5.57;;;11.20;99.90;;;;;;4714099;30;20064;-87
2021/05/13 11:09:42;;;;;;;7.85;6.25;;;11.20;99.90;;;;;;4695650;30;20704;-89
2021/05/13 11:12:36;;;;;;;18.73;7.00;;;11.30;99.90;;;;;;4690035;30;20065;-86
2021/05/13 11:15:24;;;;;;;14.40;7.05;;;11.20;99.90;;;;;;4713154;30;20061;-86
2021/05/13 11:18:14;;;;;;;9.55;5.70;;;11.20;99.90;;;;;;4714027;30;20049;-88
2021/05/13 11:21:26;;;;;;;8.02;6.43;;;11.20;99.90;;;;;;4687808;30;20068;-88
2021/05/13 11:24:10;;;;;;;7.97;6.68;;;11.30;99.90;;;;;;4685423;30;20072;-87
2021/05/13 11:26:42;;;;;;;7.03;6.43;;;11.20;99.90;;;;;;4684891;30;20404;-86
2021/05/13 11:29:19;;;;;;;12.85;6.80;;;11.30;99.90;;;;;;4692675;30;20056;-90
2021/05/13 11:32:26;;;;;;;9.88;7.85;;;11.40;99.90;;;;;;4684722;30;20381;-88
2021/05/13 11:35:25;;;;;;;7.63;6.90;;;11.40;99.90;;;;;;4687675;30;20053;-88
2021/05/13 11:38:12;;;;;;;7.38;6.28;;;11.40;99.90;;;;;;4728880;30;20056;-90
2021/05/13 11:41:39;;;;;;;8.07;7.28;;;11.20;99.90;;;;;;4717486;30;20041;-88
2021/05/13 11:44:10;;;;;;;5.93;5.25;;;11.00;99.90;;;;;;4694726;30;20150;-78
2021/05/13 11:46:43;;;;;;;4.57;4.18;;;11.10;99.90;;;;;;4715667;30;20056;-88
2021/05/13 11:49:50;;;;;;;5.07;3.80;;;11.00;99.90;;;;;;4699957;30;20056;-88
2021/05/13 11:52:33;;;;;;;4.80;4.40;;;11.10;99.90;;;;;;4691889;30;20055;-88
2021/05/13 11:55:50;;;;;;;4.25;3.85;;;11.10;99.90;;;;;;4715751;30;20396;-87
2021/05/13 11:58:35;;;;;;;7.78;3.75;;;11.20;99.90;;;;;;4706791;30;20060;-81
2021/05/13 12:01:22;;;;;;;4.38;2.90;;;11.30;99.90;;;;;;4712516;30;20061;-81
2021/05/13 12:03:53;;;;;;;6.60;3.53;;;11.20;99.90;;;;;;4714998;30;20060;-80
2021/05/13 12:06:22;;;;;;;3.95;3.50;;;11.40;99.90;;;;;;4713994;30;20045;-84
2021/05/13 12:08:52;;;;;;;9.38;4.10;;;11.40;99.90;;;;;;4713135;30;20056;-82
2021/05/13 12:11:28;;;;;;;3.53;3.20;;;11.40;99.90;;;;;;4714947;30;20576;-84
2021/05/13 12:13:57;;;;;;;6.55;4.00;;;11.50;99.90;;;;;;4712228;30;20483;-85
2021/05/13 12:28:45;;;;;;;6.82;4.75;;;11.50;99.90;;;;;;4571961;31;20593;-85
2021/05/13 12:31:33;;;;;;;6.00;4.88;;;11.40;99.90;;;;;;4613238;31;20076;-85
2021/05/13 12:34:32;;;;;;;4.63;3.60;;;11.30;99.90;;;;;;4626378;30;20051;-85
2021/05/13 12:37:03;;;;;;;4.93;4.38;;;11.20;99.90;;;;;;4644398;30;20496;-85
2021/05/13 12:39:44;;;;;;;4.32;4.00;;;11.10;99.90;;;;;;4712520;30;20061;-85
2021/05/13 12:42:27;;;;;;;5.93;4.72;;;10.90;99.90;;;;;;4711929;30;20057;-85
2021/05/13 12:45:19;;;;;;;4.30;4.00;;;10.80;99.90;;;;;;4710908;30;20058;-84
2021/05/13 12:48:13;;;;;;;8.45;6.22;;;10.70;99.90;;;;;;4679248;30;20068;-88
2021/05/13 12:50:54;;;;;;;;;;;10.60;99.90;;;;;;4702172;30;20065;-83
2021/05/13 12:53:57;;;;;;;4.10;3.80;;;10.70;99.90;;;;;;4718875;30;19931;-89
2021/05/13 12:56:31;;;;;;;3.53;3.22;;;10.70;99.90;;;;;;4710075;30;20049;-90
2021/05/13 12:59:15;;;;;;;4.88;4.15;;;10.70;99.90;;;;;;4721166;30;20061;-86
2021/05/13 13:01:57;;;;;;;6.03;4.47;;;10.60;99.90;;;;;;4720002;30;20068;-89
2021/05/13 13:04:45;;;;;;;4.22;3.92;;;10.80;99.90;;;;;;4704683;30;20045;-88
2021/05/13 13:07:14;;;;;;;7.28;3.92;;;10.90;99.90;;;;;;4705975;30;20057;-92
2021/05/13 13:09:45;;;;;;;2.85;2.65;;;10.80;99.90;;;;;;4690955;30;20484;-90
2021/05/13 13:12:15;;;;;;;3.60;3.33;;;10.80;99.90;;;;;;4716358;30;20045;-88
2021/05/13 13:14:48;;;;;;;4.32;3.58;;;10.60;99.90;;;;;;4715080;30;20057;-89
2021/05/13 13:17:26;;;;;;;4.05;3.47;;;10.70;99.90;;;;;;4700125;30;20065;-89
2021/05/13 13:20:05;;;;;;;3.28;2.97;;;10.80;99.90;;;;;;4700332;30;20393;-89
2021/05/13 13:22:38;;;;;;;3.00;2.80;;;10.80;99.90;;;;;;4701586;30;20049;-87
2021/05/13 13:25:16;;;;;;;4.95;3.30;;;10.80;99.90;;;;;;4715588;30;20045;-90
2021/05/13 13:27:44;;;;;;;2.38;2.10;;;10.70;99.90;;;;;;4717507;30;20493;-89
2021/05/13 13:30:12;;;;;;;3.33;3.03;;;10.70;99.90;;;;;;4715837;30;20075;-78
2021/05/13 13:32:42;;;;;;;5.15;3.70;;;10.70;99.90;;;;;;4716324;30;20527;-77
2021/05/13 13:35:12;;;;;;;6.10;4.00;;;10.70;99.90;;;;;;4715556;30;20053;-87
2021/05/13 13:37:41;;;;;;;5.25;3.22;;;10.80;99.90;;;;;;4715584;30;20057;-87
2021/05/13 13:40:10;;;;;;;3.80;3.08;;;10.90;99.90;;;;;;4715733;30;20404;-91
2021/05/13 13:42:38;;;;;;;4.70;2.70;;;10.90;99.90;;;;;;4702312;30;20061;-89
2021/05/13 13:45:08;;;;;;;2.67;2.47;;;10.90;99.90;;;;;;4716597;30;20068;-87